Logo AVAMET
Benvolgut visitant, si us plau, ingressa Recuperar contrasenya

Canet lo Roig

Dades diàries. Acumulats / Últims 30 dies disponibles

Data Temperatura (°C) Humitat rel. (%) Pressió rel. (hPa) Vent (km/h) Precipitació
Mínima Mitjana Màxima Amplitud
tèrmica
Mínima Mitjana Màxima Mínima Mitjana Màxima Predom. Mitjana Ràfega
màxima
Total
(mm)
Índex-n
Mínima Mitjana Màxima Mínima Mitjana Màxima n
0 a 1
P0 max
mm 5'
Dades mensuals acumulades fins l'últim dia disponible
05/2019 8,2 11,5 15,6 16,3 14,5 21,5 26,7 18,5 12 61 94 1.001 1.014 1.025   7,8 70,8 5,2
Dades anuals acumulades fins l'últim dia disponible
2019 1,3 7,9 15,6 12,4 8,5 17,5 26,7 25,4 12 60 95 989 1.019 1.036   8,6 115,9 64,2
Últims 30 dies disponibles
23-05-2019 13,3     18,5     24,1 10,8 59 75 86 1.015 1.017 1.018 SE 3,4 20,9 0,6
22-05-2019 10,6     17,2     22,4 11,8 48 70 90 1.017 1.018 1.019 SE 5,3 29,0 0,0
21-05-2019 10,7     16,1     21,4 10,7 51 67 81 1.014 1.015 1.017 ENE 5,8 33,8 0,0
20-05-2019 12,3     16,5     21,9 9,6 29 52 77 1.011 1.012 1.015 NW 8,2 33,8 0,0
19-05-2019 11,7     15,1     19,3 7,6 43 54 65 1.009 1.010 1.013 NW 8,7 51,5 0,0
18-05-2019 11,0     14,2     18,2 7,2 44 56 63 1.008 1.009 1.011 NW 8,9 45,1 0,0
17-05-2019 12,8     14,4     16,7 3,9 53 68 92 1.001 1.004 1.009 NW 12,2 61,2 2,6
16-05-2019 10,8     15,1     19,6 8,8 64 77 88 1.006 1.011 1.016 SSW 8,4 33,8 0,0
15-05-2019 11,3     15,1     21,3 10,0 64 79 93 1.012 1.013 1.016 ESE 5,8 33,8 0,0
14-05-2019 9,4     16,9     23,7 14,3 35 57 87 1.014 1.018 1.022 SSW 7,6 32,2 0,0
13-05-2019 10,9     16,6     21,4 10,5 32 62 91 1.019 1.020 1.023 SE 7,6 33,8 0,0
12-05-2019 12,5     18,8     25,9 13,4 19 35 80 1.018 1.022 1.025 NW 9,3 56,3 0,0
11-05-2019 15,1     20,2     24,9 9,8 33 57 88 1.015 1.018 1.024 ENE 8,2 41,8 0,0
10-05-2019 15,6     21,1     25,6 10,0 46 60 73 1.011 1.012 1.015 ESE 5,3 25,7 0,0
09-05-2019 15,0     19,0     23,7 8,7 27 48 69 1.009 1.011 1.012 NW 8,4 41,8 0,0
08-05-2019 13,6     18,9     26,7 13,1 34 68 94 1.007 1.010 1.015 W 9,2 53,1 0,0
07-05-2019 8,7     14,5     20,5 11,8 66 77 91 1.015 1.017 1.019 SE 3,7 22,5 0,0
06-05-2019 8,2     14,6     18,6 10,4 26 41 67 1.017 1.018 1.019 SE 6,8 32,2 0,0
05-05-2019 9,4     14,6     21,3 11,9 12 38 72 1.012 1.015 1.018 NW 14,5 70,8 0,0
04-05-2019 10,6     15,2     21,8 11,2 28 50 66 1.010 1.012 1.013 NW 15,3 49,9 0,0
03-05-2019 10,8     13,0     14,5 3,7 56 73 89 1.011 1.013 1.016 NNW 5,3 45,1 2,0
02-05-2019 12,1     15,4     19,6 7,5 62 73 89 1.014 1.015 1.016 NE 5,3 27,4 0,0
01-05-2019 8,9     14,4     21,2 12,3 52 77 93 1.013 1.015 1.017 WSW 6,8 29,0 0,0
30-04-2019 9,8     14,1     19,3 9,5 65 82 94 1.016 1.017 1.018 WSW 9,0 27,4 0,0
29-04-2019 8,6     13,9     19,2 10,6 55 74 89 1.017 1.019 1.021 ENE 5,8 27,4 0,0
28-04-2019 11,1     15,9     21,0 9,9 20 57 76 1.019 1.022 1.025 NW 8,4 32,2 0,0
27-04-2019 9,9     16,3     21,7 11,8 38 53 68 1.023 1.025 1.026 NNW 8,2 29,0 0,0
26-04-2019 10,1     15,2     20,9 10,8 33 48 63 1.016 1.020 1.025 NW 6,9 41,8 0,0
25-04-2019 11,3     14,8     21,2 9,9 27 67 89 1.008 1.010 1.016 W 7,9 54,7 0,0
24-04-2019 8,4     12,8     17,7 9,3 48 62 85 1.001 1.006 1.010 SSW 10,1 46,7 0,0
Últims 13 mesos disponibles
04/2019 5,5 9,2 11,8 13,3 13,9 18,1 24,9 19,4 42 65 84 998 1.013 1.025 ENE 8,8 69,2 40,6
03/2019 4,6 8,2 13,6 13,3 11,4 18,8 24,6 20,0 39 54 86 1.010 1.023 1.029 NW 6,9 78,9 9,2
02/2019 1,3 5,4 11,5 10,6 8,5 16,5 23,7 22,4 35 64 83 991 1.024 1.034 NNW 6,4 115,9 1,0
01/2019 1,8 5,8 12,1 9,5 8,9 13,7 20,8 19,0 21 58 87 1.000 1.018 1.030 NW 12,7 95,0 8,2
12/2018 3,6 7,5 12,5 11,7 10,7 16,6 21,2 17,6 47 70 87 1.008 1.025 1.030 NW 5,2 93,3 10,4
11/2018 3,9 8,8 14,6 12,2 12,0 16,1 20,5 16,6 51 76 95 1.001 1.015 1.024 ENE 5,6 99,8 172,8
10/2018 6,4 12,4 15,4 16,5 11,0 21,1 26,2 19,8 39 70 95 997 1.014 1.026 NW 7,5 86,9 340,6
09/2018 13,5 17,8 21,6 22,1 21,7 27,2 31,2 17,7 50 73 87 1.013 1.019 1.030 ENE 4,5 90,1 74,6
08/2018 17,1 20,1 24,9 25,1 26,0 30,5 35,9 18,8 42 64 82 1.013 1.017 1.023 WSW 6,5 66,0 21,4
07/2018 16,9 19,6 21,7 24,9 27,5 30,2 32,3 15,4 SE 6,4 74,0 34,0
06/2018 13,7 17,1 20,5 21,7 21,4 26,3 32,1 18,4 NW 6,7 62,8 39,0
05/2018 7,1 12,6 16,1 17,0 17,8 22,0 24,7 17,6 ENE 8,3 85,3 61,6
04/2018 4,4 10,0 14,6 14,6 11,5 19,5 25,3 20,9 ENE 7,0 59,5 43,0
Tots els anys disponibles
2018 -0,8 12,2 24,9 16,5 5,6 21,2 35,9 36,7 NW 7,4 101,4 875,4
2017
Temperatura (°C)
Humitat relativa (%)
Velocitat del vent i ràfega màxima (km/h)
Direcció del vent (°)
Pressió (hPa)
Precipitació (mm)
Nota sobre les dades: s'avisa a l'usuari de la provisionalitat i no oficialitat d'aquestes dades
Logo AVAMET blanc
Web allotjada a Sollutia
Llicència de Creative CommonsLa web d'AVAMET i els seus continguts estan subjectes a una llicència de
Reconeixement - No Comercial - Compartir igual
Properes estacions: Altea - Club Nàutic d'Altea (Soci), Ontinyent - El Pilar (Soci), Ares del Maestrat (Ajuntament Soci), Catadau - L'Altet (Inforatge)     - - - - -      Últimes estacions: Asp - Poliesportiu (Soci), Jacarilla - centro (MeteOrihuela), Elx - Maitino/Vallverda/Velarde/Matola/Ferriol (Soci TiempoElche.com), Orihuela - Playa Flamenca (MeteOrihuela), - - -